Terminal Aerodrome Forecast
Issued by NWS Norman, OK

Home | Current Version | Previous Version | Text Only | Print | Product List | Glossary On
Versions: 1 2 3 4 5 6 7 8 9 10 11 12 13 14 15
000
FTUS44 KOUN 260224 AAB
TAFOKC
TAF AMD
KOKC 260224Z 2602/2624 35010KT P6SM BKN150
      TEMPO 2602/2605 VRB20G35KT 3SM -TSRA OVC040CB
     FM260600 36015KT P6SM OVC010
     FM261200 36020G25KT P6SM OVC008
     FM262100 33006KT P6SM BKN020
     FM262300 VRB05KT P6SM BKN040=

USA.gov is the U.S. government's official web portal to all federal, state and local government web resources and services.